sensor_id;sensor_type;location;lat;lon;timestamp;temperature;humidity
36654;DHT22;22650;49.350;20.898;2023-04-16T00:02:07;3.40;99.90
36654;DHT22;22650;49.350;20.898;2023-04-16T00:04:41;3.40;99.90
36654;DHT22;22650;49.350;20.898;2023-04-16T00:07:14;3.40;99.90
36654;DHT22;22650;49.350;20.898;2023-04-16T00:09:48;3.40;99.90
36654;DHT22;22650;49.350;20.898;2023-04-16T00:12:22;3.40;99.90
36654;DHT22;22650;49.350;20.898;2023-04-16T00:14:57;3.40;99.90
36654;DHT22;22650;49.350;20.898;2023-04-16T00:17:30;3.40;99.90
36654;DHT22;22650;49.350;20.898;2023-04-16T00:20:05;3.30;99.90
36654;DHT22;22650;49.350;20.898;2023-04-16T00:22:39;3.30;99.90
36654;DHT22;22650;49.350;20.898;2023-04-16T00:25:13;3.30;99.90
36654;DHT22;22650;49.350;20.898;2023-04-16T00:27:47;3.20;99.90
36654;DHT22;22650;49.350;20.898;2023-04-16T00:30:22;3.20;99.90
36654;DHT22;22650;49.350;20.898;2023-04-16T00:32:55;3.20;99.90
36654;DHT22;22650;49.350;20.898;2023-04-16T00:35:29;3.20;99.90
36654;DHT22;22650;49.350;20.898;2023-04-16T00:38:02;3.20;99.90
36654;DHT22;22650;49.350;20.898;2023-04-16T00:40:36;3.20;99.90
36654;DHT22;22650;49.350;20.898;2023-04-16T00:43:10;3.10;99.90
36654;DHT22;22650;49.350;20.898;2023-04-16T00:45:45;3.10;99.90
36654;DHT22;22650;49.350;20.898;2023-04-16T00:48:19;3.10;99.90
36654;DHT22;22650;49.350;20.898;2023-04-16T00:50:53;3.10;99.90
36654;DHT22;22650;49.350;20.898;2023-04-16T00:53:27;3.10;99.90
36654;DHT22;22650;49.350;20.898;2023-04-16T00:56:02;3.10;99.90
36654;DHT22;22650;49.350;20.898;2023-04-16T00:58:36;3.10;99.90
36654;DHT22;22650;49.350;20.898;2023-04-16T01:01:11;3.10;99.90
36654;DHT22;22650;49.350;20.898;2023-04-16T01:03:46;3.10;99.90
36654;DHT22;22650;49.350;20.898;2023-04-16T01:06:20;3.00;99.90
36654;DHT22;22650;49.350;20.898;2023-04-16T01:08:54;3.10;99.90
36654;DHT22;22650;49.350;20.898;2023-04-16T01:11:27;3.10;99.90
36654;DHT22;22650;49.350;20.898;2023-04-16T01:14:01;3.00;99.90
36654;DHT22;22650;49.350;20.898;2023-04-16T01:16:36;3.10;99.90
36654;DHT22;22650;49.350;20.898;2023-04-16T01:19:11;3.00;99.90
36654;DHT22;22650;49.350;20.898;2023-04-16T01:21:45;3.00;99.90
36654;DHT22;22650;49.350;20.898;2023-04-16T01:24:19;2.90;99.90
36654;DHT22;22650;49.350;20.898;2023-04-16T01:26:53;2.90;99.90
36654;DHT22;22650;49.350;20.898;2023-04-16T01:29:26;2.90;99.90
36654;DHT22;22650;49.350;20.898;2023-04-16T01:32:02;2.90;99.90
36654;DHT22;22650;49.350;20.898;2023-04-16T01:34:38;2.90;99.90
36654;DHT22;22650;49.350;20.898;2023-04-16T01:37:16;2.90;99.90
36654;DHT22;22650;49.350;20.898;2023-04-16T01:39:50;2.90;99.90
36654;DHT22;22650;49.350;20.898;2023-04-16T01:42:24;2.90;99.90
36654;DHT22;22650;49.350;20.898;2023-04-16T01:44:57;3.00;99.90
36654;DHT22;22650;49.350;20.898;2023-04-16T01:47:31;3.00;99.90
36654;DHT22;22650;49.350;20.898;2023-04-16T01:50:05;3.00;99.90
36654;DHT22;22650;49.350;20.898;2023-04-16T01:52:40;3.00;99.90
36654;DHT22;22650;49.350;20.898;2023-04-16T01:55:14;3.00;99.90
36654;DHT22;22650;49.350;20.898;2023-04-16T01:57:47;3.00;99.90
36654;DHT22;22650;49.350;20.898;2023-04-16T02:00:21;3.00;99.90
36654;DHT22;22650;49.350;20.898;2023-04-16T02:02:57;3.00;99.90
36654;DHT22;22650;49.350;20.898;2023-04-16T02:05:32;3.00;99.90
36654;DHT22;22650;49.350;20.898;2023-04-16T02:08:07;3.00;99.90
36654;DHT22;22650;49.350;20.898;2023-04-16T02:10:40;3.00;99.90
36654;DHT22;22650;49.350;20.898;2023-04-16T02:13:14;3.00;99.90
36654;DHT22;22650;49.350;20.898;2023-04-16T02:15:51;3.00;99.90
36654;DHT22;22650;49.350;20.898;2023-04-16T02:18:34;3.00;99.90
36654;DHT22;22650;49.350;20.898;2023-04-16T02:21:09;2.90;99.90
36654;DHT22;22650;49.350;20.898;2023-04-16T02:23:44;2.90;99.90
36654;DHT22;22650;49.350;20.898;2023-04-16T02:26:20;2.90;99.90
36654;DHT22;22650;49.350;20.898;2023-04-16T02:28:54;2.90;99.90
36654;DHT22;22650;49.350;20.898;2023-04-16T02:31:32;2.90;99.90
36654;DHT22;22650;49.350;20.898;2023-04-16T02:34:06;2.90;99.90
36654;DHT22;22650;49.350;20.898;2023-04-16T02:36:40;2.90;99.90
36654;DHT22;22650;49.350;20.898;2023-04-16T02:39:15;2.80;99.90
36654;DHT22;22650;49.350;20.898;2023-04-16T02:41:48;2.80;99.90
36654;DHT22;22650;49.350;20.898;2023-04-16T02:44:22;2.90;99.90
36654;DHT22;22650;49.350;20.898;2023-04-16T02:46:56;2.80;99.90
36654;DHT22;22650;49.350;20.898;2023-04-16T02:49:29;2.90;99.90
36654;DHT22;22650;49.350;20.898;2023-04-16T02:52:03;2.90;99.90
36654;DHT22;22650;49.350;20.898;2023-04-16T02:54:38;2.80;99.90
36654;DHT22;22650;49.350;20.898;2023-04-16T02:57:12;2.80;99.90
36654;DHT22;22650;49.350;20.898;2023-04-16T02:59:45;2.80;99.90
36654;DHT22;22650;49.350;20.898;2023-04-16T03:02:19;2.80;99.90
36654;DHT22;22650;49.350;20.898;2023-04-16T03:04:52;2.80;99.90
36654;DHT22;22650;49.350;20.898;2023-04-16T03:07:26;2.80;99.90
36654;DHT22;22650;49.350;20.898;2023-04-16T03:10:01;2.80;99.90
36654;DHT22;22650;49.350;20.898;2023-04-16T03:12:34;2.80;99.90
36654;DHT22;22650;49.350;20.898;2023-04-16T03:15:11;2.80;99.90
36654;DHT22;22650;49.350;20.898;2023-04-16T03:17:44;2.80;99.90
36654;DHT22;22650;49.350;20.898;2023-04-16T03:20:18;2.80;99.90
36654;DHT22;22650;49.350;20.898;2023-04-16T03:22:52;2.80;99.90
36654;DHT22;22650;49.350;20.898;2023-04-16T03:25:27;2.80;99.90
36654;DHT22;22650;49.350;20.898;2023-04-16T03:28:00;2.80;99.90
36654;DHT22;22650;49.350;20.898;2023-04-16T03:30:35;2.80;99.90
36654;DHT22;22650;49.350;20.898;2023-04-16T03:33:10;2.80;99.90
36654;DHT22;22650;49.350;20.898;2023-04-16T03:35:44;2.70;99.90
36654;DHT22;22650;49.350;20.898;2023-04-16T03:38:18;2.70;99.90
36654;DHT22;22650;49.350;20.898;2023-04-16T03:40:53;2.70;99.90
36654;DHT22;22650;49.350;20.898;2023-04-16T03:43:27;2.70;99.90
36654;DHT22;22650;49.350;20.898;2023-04-16T03:46:00;2.80;99.90
36654;DHT22;22650;49.350;20.898;2023-04-16T03:48:34;2.80;99.90
36654;DHT22;22650;49.350;20.898;2023-04-16T03:51:08;2.80;99.90
36654;DHT22;22650;49.350;20.898;2023-04-16T03:53:43;2.80;99.90
36654;DHT22;22650;49.350;20.898;2023-04-16T03:56:19;2.80;99.90
36654;DHT22;22650;49.350;20.898;2023-04-16T03:58:55;2.80;99.90
36654;DHT22;22650;49.350;20.898;2023-04-16T04:01:28;2.80;99.90
36654;DHT22;22650;49.350;20.898;2023-04-16T04:04:02;2.80;99.90
36654;DHT22;22650;49.350;20.898;2023-04-16T04:06:36;2.80;99.90
36654;DHT22;22650;49.350;20.898;2023-04-16T04:09:09;2.80;99.90
36654;DHT22;22650;49.350;20.898;2023-04-16T04:11:44;2.80;99.90
36654;DHT22;22650;49.350;20.898;2023-04-16T04:14:18;2.80;99.90
36654;DHT22;22650;49.350;20.898;2023-04-16T04:16:51;2.80;99.90
36654;DHT22;22650;49.350;20.898;2023-04-16T04:19:25;2.80;99.90
36654;DHT22;22650;49.350;20.898;2023-04-16T04:21:59;2.80;99.90
36654;DHT22;22650;49.350;20.898;2023-04-16T04:24:32;2.80;99.90
36654;DHT22;22650;49.350;20.898;2023-04-16T04:27:08;2.90;99.90
36654;DHT22;22650;49.350;20.898;2023-04-16T04:29:42;2.90;99.90
36654;DHT22;22650;49.350;20.898;2023-04-16T04:32:15;2.90;99.90
36654;DHT22;22650;49.350;20.898;2023-04-16T04:34:51;2.90;99.90
36654;DHT22;22650;49.350;20.898;2023-04-16T04:37:24;3.00;99.90
36654;DHT22;22650;49.350;20.898;2023-04-16T04:39:58;3.00;99.90
36654;DHT22;22650;49.350;20.898;2023-04-16T04:42:33;3.00;99.90
36654;DHT22;22650;49.350;20.898;2023-04-16T04:45:08;3.00;99.90
36654;DHT22;22650;49.350;20.898;2023-04-16T04:47:42;3.00;99.90
36654;DHT22;22650;49.350;20.898;2023-04-16T04:50:16;3.00;99.90
36654;DHT22;22650;49.350;20.898;2023-04-16T04:52:49;3.00;99.90
36654;DHT22;22650;49.350;20.898;2023-04-16T04:55:23;3.10;99.90
36654;DHT22;22650;49.350;20.898;2023-04-16T04:57:58;3.10;99.90
36654;DHT22;22650;49.350;20.898;2023-04-16T05:00:32;3.10;99.90
36654;DHT22;22650;49.350;20.898;2023-04-16T05:03:09;3.20;99.90
36654;DHT22;22650;49.350;20.898;2023-04-16T05:05:43;3.20;99.90
36654;DHT22;22650;49.350;20.898;2023-04-16T05:08:16;3.20;99.90
36654;DHT22;22650;49.350;20.898;2023-04-16T05:10:50;3.30;99.90
36654;DHT22;22650;49.350;20.898;2023-04-16T05:13:25;3.30;99.90
36654;DHT22;22650;49.350;20.898;2023-04-16T05:15:59;3.40;99.90
36654;DHT22;22650;49.350;20.898;2023-04-16T05:18:32;3.40;99.90
36654;DHT22;22650;49.350;20.898;2023-04-16T05:21:06;3.40;99.90
36654;DHT22;22650;49.350;20.898;2023-04-16T05:23:40;3.40;99.90
36654;DHT22;22650;49.350;20.898;2023-04-16T05:26:13;3.40;99.90
36654;DHT22;22650;49.350;20.898;2023-04-16T05:28:48;3.50;99.90
36654;DHT22;22650;49.350;20.898;2023-04-16T05:31:22;3.50;99.90
36654;DHT22;22650;49.350;20.898;2023-04-16T05:33:55;3.60;99.90
36654;DHT22;22650;49.350;20.898;2023-04-16T05:36:29;3.70;99.90
36654;DHT22;22650;49.350;20.898;2023-04-16T05:39:03;3.80;99.90
36654;DHT22;22650;49.350;20.898;2023-04-16T05:41:37;3.90;99.90
36654;DHT22;22650;49.350;20.898;2023-04-16T05:44:12;4.00;99.90
36654;DHT22;22650;49.350;20.898;2023-04-16T05:46:49;4.10;99.90
36654;DHT22;22650;49.350;20.898;2023-04-16T05:49:22;4.20;99.90
36654;DHT22;22650;49.350;20.898;2023-04-16T05:51:56;4.20;99.90
36654;DHT22;22650;49.350;20.898;2023-04-16T05:54:30;4.20;99.90
36654;DHT22;22650;49.350;20.898;2023-04-16T05:57:03;4.30;99.90
36654;DHT22;22650;49.350;20.898;2023-04-16T05:59:38;4.40;99.90
36654;DHT22;22650;49.350;20.898;2023-04-16T06:02:12;4.40;99.90
36654;DHT22;22650;49.350;20.898;2023-04-16T06:04:45;4.50;99.90
36654;DHT22;22650;49.350;20.898;2023-04-16T06:07:20;4.60;99.90
36654;DHT22;22650;49.350;20.898;2023-04-16T06:09:54;4.70;99.90
36654;DHT22;22650;49.350;20.898;2023-04-16T06:12:27;4.70;99.90
36654;DHT22;22650;49.350;20.898;2023-04-16T06:15:04;4.80;99.90
36654;DHT22;22650;49.350;20.898;2023-04-16T06:17:37;5.00;99.90
36654;DHT22;22650;49.350;20.898;2023-04-16T06:20:11;5.00;99.90
36654;DHT22;22650;49.350;20.898;2023-04-16T06:22:45;5.20;99.90
36654;DHT22;22650;49.350;20.898;2023-04-16T06:25:19;5.30;99.90
36654;DHT22;22650;49.350;20.898;2023-04-16T06:27:52;5.40;99.90
36654;DHT22;22650;49.350;20.898;2023-04-16T06:30:27;5.50;99.90
36654;DHT22;22650;49.350;20.898;2023-04-16T06:33:01;5.60;99.90
36654;DHT22;22650;49.350;20.898;2023-04-16T06:35:35;5.70;99.90
36654;DHT22;22650;49.350;20.898;2023-04-16T06:38:08;5.80;99.90
36654;DHT22;22650;49.350;20.898;2023-04-16T06:40:42;5.80;99.90
36654;DHT22;22650;49.350;20.898;2023-04-16T06:43:16;6.00;99.90
36654;DHT22;22650;49.350;20.898;2023-04-16T06:45:51;6.10;99.90
36654;DHT22;22650;49.350;20.898;2023-04-16T06:48:24;6.20;99.90
36654;DHT22;22650;49.350;20.898;2023-04-16T06:50:58;6.40;99.90
36654;DHT22;22650;49.350;20.898;2023-04-16T06:53:31;6.60;99.90
36654;DHT22;22650;49.350;20.898;2023-04-16T06:56:05;6.70;99.90
36654;DHT22;22650;49.350;20.898;2023-04-16T06:58:39;6.80;99.90
36654;DHT22;22650;49.350;20.898;2023-04-16T07:01:14;7.00;99.90
36654;DHT22;22650;49.350;20.898;2023-04-16T07:03:47;7.10;99.90
36654;DHT22;22650;49.350;20.898;2023-04-16T07:06:22;7.30;99.90
36654;DHT22;22650;49.350;20.898;2023-04-16T07:08:55;7.50;99.90
36654;DHT22;22650;49.350;20.898;2023-04-16T07:11:29;7.60;99.90
36654;DHT22;22650;49.350;20.898;2023-04-16T07:14:02;7.70;99.90
36654;DHT22;22650;49.350;20.898;2023-04-16T07:16:37;8.00;99.90
36654;DHT22;22650;49.350;20.898;2023-04-16T07:19:11;8.10;99.90
36654;DHT22;22650;49.350;20.898;2023-04-16T07:21:45;8.30;99.90
36654;DHT22;22650;49.350;20.898;2023-04-16T07:24:18;8.50;99.90
36654;DHT22;22650;49.350;20.898;2023-04-16T07:26:52;8.70;99.90
36654;DHT22;22650;49.350;20.898;2023-04-16T07:29:26;9.10;99.90
36654;DHT22;22650;49.350;20.898;2023-04-16T07:32:01;9.40;99.90
36654;DHT22;22650;49.350;20.898;2023-04-16T07:34:34;9.60;99.90
36654;DHT22;22650;49.350;20.898;2023-04-16T07:37:08;9.90;99.90
36654;DHT22;22650;49.350;20.898;2023-04-16T07:39:41;10.30;99.90
36654;DHT22;22650;49.350;20.898;2023-04-16T07:42:15;10.60;99.90
36654;DHT22;22650;49.350;20.898;2023-04-16T07:44:48;10.90;99.90
36654;DHT22;22650;49.350;20.898;2023-04-16T07:47:23;11.30;99.90
36654;DHT22;22650;49.350;20.898;2023-04-16T07:49:57;11.60;99.90
36654;DHT22;22650;49.350;20.898;2023-04-16T07:52:31;12.00;99.90
36654;DHT22;22650;49.350;20.898;2023-04-16T07:55:05;12.20;99.90
36654;DHT22;22650;49.350;20.898;2023-04-16T07:57:39;12.50;99.90
36654;DHT22;22650;49.350;20.898;2023-04-16T08:00:13;12.90;99.90
36654;DHT22;22650;49.350;20.898;2023-04-16T08:02:48;13.30;99.90
36654;DHT22;22650;49.350;20.898;2023-04-16T08:05:22;13.70;99.90
36654;DHT22;22650;49.350;20.898;2023-04-16T08:07:55;13.90;99.90
36654;DHT22;22650;49.350;20.898;2023-04-16T08:10:29;14.20;99.90
36654;DHT22;22650;49.350;20.898;2023-04-16T08:13:02;14.30;99.90
36654;DHT22;22650;49.350;20.898;2023-04-16T08:15:36;14.60;99.90
36654;DHT22;22650;49.350;20.898;2023-04-16T08:18:11;14.90;99.90
36654;DHT22;22650;49.350;20.898;2023-04-16T08:20:46;15.20;99.90
36654;DHT22;22650;49.350;20.898;2023-04-16T08:23:20;15.50;99.90
36654;DHT22;22650;49.350;20.898;2023-04-16T08:25:53;15.80;99.90
36654;DHT22;22650;49.350;20.898;2023-04-16T08:28:27;16.00;99.90
36654;DHT22;22650;49.350;20.898;2023-04-16T08:31:00;16.10;99.90
36654;DHT22;22650;49.350;20.898;2023-04-16T08:33:35;16.30;99.90
36654;DHT22;22650;49.350;20.898;2023-04-16T08:36:09;16.40;99.90
36654;DHT22;22650;49.350;20.898;2023-04-16T08:38:42;16.50;99.90
36654;DHT22;22650;49.350;20.898;2023-04-16T08:41:16;16.70;99.90
36654;DHT22;22650;49.350;20.898;2023-04-16T08:43:52;16.90;99.90
36654;DHT22;22650;49.350;20.898;2023-04-16T08:46:29;17.20;99.90
36654;DHT22;22650;49.350;20.898;2023-04-16T08:49:06;17.30;99.90
36654;DHT22;22650;49.350;20.898;2023-04-16T08:51:42;17.50;99.90
36654;DHT22;22650;49.350;20.898;2023-04-16T08:54:24;17.70;99.90
36654;DHT22;22650;49.350;20.898;2023-04-16T08:57:01;18.00;99.90
36654;DHT22;22650;49.350;20.898;2023-04-16T08:59:37;18.30;99.90
36654;DHT22;22650;49.350;20.898;2023-04-16T09:02:12;18.60;99.90
36654;DHT22;22650;49.350;20.898;2023-04-16T09:04:47;18.80;99.90
36654;DHT22;22650;49.350;20.898;2023-04-16T09:07:23;18.80;92.60
36654;DHT22;22650;49.350;20.898;2023-04-16T09:09:58;19.00;94.60
36654;DHT22;22650;49.350;20.898;2023-04-16T09:12:32;19.10;94.00
36654;DHT22;22650;49.350;20.898;2023-04-16T09:15:09;19.20;89.80
36654;DHT22;22650;49.350;20.898;2023-04-16T09:17:42;19.20;85.40
36654;DHT22;22650;49.350;20.898;2023-04-16T09:20:18;19.20;89.60
36654;DHT22;22650;49.350;20.898;2023-04-16T09:22:52;19.40;87.20
36654;DHT22;22650;49.350;20.898;2023-04-16T09:25:25;19.60;87.70
36654;DHT22;22650;49.350;20.898;2023-04-16T09:27:59;19.80;86.50
36654;DHT22;22650;49.350;20.898;2023-04-16T09:30:32;19.70;82.10
36654;DHT22;22650;49.350;20.898;2023-04-16T09:33:14;19.70;85.80
36654;DHT22;22650;49.350;20.898;2023-04-16T09:35:51;19.90;93.60
36654;DHT22;22650;49.350;20.898;2023-04-16T09:38:24;20.00;77.60
36654;DHT22;22650;49.350;20.898;2023-04-16T09:41:06;20.00;73.80
36654;DHT22;22650;49.350;20.898;2023-04-16T09:43:39;20.00;73.20
36654;DHT22;22650;49.350;20.898;2023-04-16T09:46:13;20.00;75.90
36654;DHT22;22650;49.350;20.898;2023-04-16T09:48:46;20.00;72.20
36654;DHT22;22650;49.350;20.898;2023-04-16T09:51:21;20.10;71.10
36654;DHT22;22650;49.350;20.898;2023-04-16T09:53:56;20.10;71.90
36654;DHT22;22650;49.350;20.898;2023-04-16T09:56:30;20.10;67.90
36654;DHT22;22650;49.350;20.898;2023-04-16T09:59:03;19.90;67.70
36654;DHT22;22650;49.350;20.898;2023-04-16T10:01:37;19.90;65.10
36654;DHT22;22650;49.350;20.898;2023-04-16T10:04:10;19.90;66.90
36654;DHT22;22650;49.350;20.898;2023-04-16T10:07:01;19.80;64.30
36654;DHT22;22650;49.350;20.898;2023-04-16T10:09:36;19.90;64.30
36654;DHT22;22650;49.350;20.898;2023-04-16T10:12:10;19.90;67.50
36654;DHT22;22650;49.350;20.898;2023-04-16T10:14:44;19.90;68.30
36654;DHT22;22650;49.350;20.898;2023-04-16T10:17:21;20.00;67.90
36654;DHT22;22650;49.350;20.898;2023-04-16T10:19:57;20.00;66.40
36654;DHT22;22650;49.350;20.898;2023-04-16T10:22:32;20.20;66.40
36654;DHT22;22650;49.350;20.898;2023-04-16T10:25:06;20.30;67.50
36654;DHT22;22650;49.350;20.898;2023-04-16T10:27:41;20.40;65.80
36654;DHT22;22650;49.350;20.898;2023-04-16T10:30:15;20.50;66.30
36654;DHT22;22650;49.350;20.898;2023-04-16T10:32:50;20.70;66.50
36654;DHT22;22650;49.350;20.898;2023-04-16T10:35:24;20.60;65.60
36654;DHT22;22650;49.350;20.898;2023-04-16T10:38:20;20.70;66.30
36654;DHT22;22650;49.350;20.898;2023-04-16T10:41:02;20.50;64.40
36654;DHT22;22650;49.350;20.898;2023-04-16T10:43:39;20.20;64.90
36654;DHT22;22650;49.350;20.898;2023-04-16T10:46:18;20.00;66.00
36654;DHT22;22650;49.350;20.898;2023-04-16T10:48:53;20.00;66.10
36654;DHT22;22650;49.350;20.898;2023-04-16T10:51:29;20.10;67.10
36654;DHT22;22650;49.350;20.898;2023-04-16T10:54:19;20.20;66.60
36654;DHT22;22650;49.350;20.898;2023-04-16T10:56:56;20.30;65.60
36654;DHT22;22650;49.350;20.898;2023-04-16T10:59:31;20.40;65.30
36654;DHT22;22650;49.350;20.898;2023-04-16T11:02:07;20.40;64.50
36654;DHT22;22650;49.350;20.898;2023-04-16T11:04:43;20.40;64.30
36654;DHT22;22650;49.350;20.898;2023-04-16T11:07:19;20.60;66.30
36654;DHT22;22650;49.350;20.898;2023-04-16T11:09:58;20.80;65.60
36654;DHT22;22650;49.350;20.898;2023-04-16T11:12:34;21.00;65.10
36654;DHT22;22650;49.350;20.898;2023-04-16T11:15:10;21.30;66.50
36654;DHT22;22650;49.350;20.898;2023-04-16T11:17:45;21.30;62.60
36654;DHT22;22650;49.350;20.898;2023-04-16T11:20:20;21.40;62.30
36654;DHT22;22650;49.350;20.898;2023-04-16T11:22:55;21.40;61.30
36654;DHT22;22650;49.350;20.898;2023-04-16T11:25:30;21.20;61.20
36654;DHT22;22650;49.350;20.898;2023-04-16T11:28:05;21.00;60.70
36654;DHT22;22650;49.350;20.898;2023-04-16T11:30:39;20.90;61.70
36654;DHT22;22650;49.350;20.898;2023-04-16T11:33:13;20.70;61.10
36654;DHT22;22650;49.350;20.898;2023-04-16T11:35:55;20.60;61.40
36654;DHT22;22650;49.350;20.898;2023-04-16T11:38:34;20.60;61.50
36654;DHT22;22650;49.350;20.898;2023-04-16T11:41:10;20.60;62.00
36654;DHT22;22650;49.350;20.898;2023-04-16T11:43:43;20.70;63.40
36654;DHT22;22650;49.350;20.898;2023-04-16T11:46:17;20.70;63.00
36654;DHT22;22650;49.350;20.898;2023-04-16T11:48:59;20.70;62.90
36654;DHT22;22650;49.350;20.898;2023-04-16T11:51:32;20.80;62.60
36654;DHT22;22650;49.350;20.898;2023-04-16T11:54:17;20.90;63.60
36654;DHT22;22650;49.350;20.898;2023-04-16T11:56:53;20.80;64.00
36654;DHT22;22650;49.350;20.898;2023-04-16T11:59:26;20.70;61.30
36654;DHT22;22650;49.350;20.898;2023-04-16T12:02:00;20.50;61.10
36654;DHT22;22650;49.350;20.898;2023-04-16T12:04:33;20.40;63.90
36654;DHT22;22650;49.350;20.898;2023-04-16T12:07:09;20.30;63.80
36654;DHT22;22650;49.350;20.898;2023-04-16T12:09:43;20.40;62.60
36654;DHT22;22650;49.350;20.898;2023-04-16T12:12:35;20.50;63.10
36654;DHT22;22650;49.350;20.898;2023-04-16T12:15:09;20.60;60.60
36654;DHT22;22650;49.350;20.898;2023-04-16T12:17:43;20.50;62.30
36654;DHT22;22650;49.350;20.898;2023-04-16T12:20:17;20.60;64.00
36654;DHT22;22650;49.350;20.898;2023-04-16T12:22:51;20.70;64.40
36654;DHT22;22650;49.350;20.898;2023-04-16T12:25:27;20.80;62.90
36654;DHT22;22650;49.350;20.898;2023-04-16T12:28:02;20.90;61.10
36654;DHT22;22650;49.350;20.898;2023-04-16T12:30:48;21.10;62.10
36654;DHT22;22650;49.350;20.898;2023-04-16T12:33:22;21.20;63.60
36654;DHT22;22650;49.350;20.898;2023-04-16T12:35:56;21.20;62.70
36654;DHT22;22650;49.350;20.898;2023-04-16T12:38:30;21.40;64.60
36654;DHT22;22650;49.350;20.898;2023-04-16T12:41:04;21.50;63.80
36654;DHT22;22650;49.350;20.898;2023-04-16T12:43:39;21.60;64.10
36654;DHT22;22650;49.350;20.898;2023-04-16T12:46:12;21.90;65.10
36654;DHT22;22650;49.350;20.898;2023-04-16T12:48:46;22.10;62.80
36654;DHT22;22650;49.350;20.898;2023-04-16T12:51:20;22.30;60.80
36654;DHT22;22650;49.350;20.898;2023-04-16T12:53:55;22.30;60.40
36654;DHT22;22650;49.350;20.898;2023-04-16T12:56:29;22.50;59.60
36654;DHT22;22650;49.350;20.898;2023-04-16T12:59:04;22.50;58.30
36654;DHT22;22650;49.350;20.898;2023-04-16T13:01:40;22.60;60.60
36654;DHT22;22650;49.350;20.898;2023-04-16T13:04:15;22.80;60.70
36654;DHT22;22650;49.350;20.898;2023-04-16T13:06:50;22.80;57.20
36654;DHT22;22650;49.350;20.898;2023-04-16T13:09:23;22.60;57.60
36654;DHT22;22650;49.350;20.898;2023-04-16T13:11:58;22.60;57.60
36654;DHT22;22650;49.350;20.898;2023-04-16T13:14:33;22.60;56.30
36654;DHT22;22650;49.350;20.898;2023-04-16T13:17:06;22.50;55.20
36654;DHT22;22650;49.350;20.898;2023-04-16T13:19:40;22.40;56.30
36654;DHT22;22650;49.350;20.898;2023-04-16T13:22:13;22.30;55.80
36654;DHT22;22650;49.350;20.898;2023-04-16T13:24:47;22.30;57.30
36654;DHT22;22650;49.350;20.898;2023-04-16T13:27:21;22.40;57.00
36654;DHT22;22650;49.350;20.898;2023-04-16T13:29:56;22.40;57.10
36654;DHT22;22650;49.350;20.898;2023-04-16T13:32:29;22.10;56.40
36654;DHT22;22650;49.350;20.898;2023-04-16T13:35:03;22.00;56.90
36654;DHT22;22650;49.350;20.898;2023-04-16T13:37:37;21.90;57.40
36654;DHT22;22650;49.350;20.898;2023-04-16T13:40:11;21.80;58.50
36654;DHT22;22650;49.350;20.898;2023-04-16T13:42:44;21.90;59.60
36654;DHT22;22650;49.350;20.898;2023-04-16T13:45:19;21.80;59.20
36654;DHT22;22650;49.350;20.898;2023-04-16T13:47:53;21.80;59.50
36654;DHT22;22650;49.350;20.898;2023-04-16T13:50:27;21.70;58.70
36654;DHT22;22650;49.350;20.898;2023-04-16T13:53:00;21.50;57.40
36654;DHT22;22650;49.350;20.898;2023-04-16T13:55:34;21.40;58.10
36654;DHT22;22650;49.350;20.898;2023-04-16T13:58:07;21.30;57.90
36654;DHT22;22650;49.350;20.898;2023-04-16T14:00:43;21.30;59.40
36654;DHT22;22650;49.350;20.898;2023-04-16T14:03:17;21.20;58.80
36654;DHT22;22650;49.350;20.898;2023-04-16T14:05:50;21.10;59.60
36654;DHT22;22650;49.350;20.898;2023-04-16T14:08:24;21.00;59.70
36654;DHT22;22650;49.350;20.898;2023-04-16T14:10:58;20.90;59.60
36654;DHT22;22650;49.350;20.898;2023-04-16T14:13:31;20.70;59.80
36654;DHT22;22650;49.350;20.898;2023-04-16T14:16:06;20.60;59.40
36654;DHT22;22650;49.350;20.898;2023-04-16T14:18:40;20.50;59.20
36654;DHT22;22650;49.350;20.898;2023-04-16T14:21:14;20.30;59.40
36654;DHT22;22650;49.350;20.898;2023-04-16T14:23:48;20.10;60.00
36654;DHT22;22650;49.350;20.898;2023-04-16T14:26:22;20.00;60.70
36654;DHT22;22650;49.350;20.898;2023-04-16T14:28:55;20.00;61.20
36654;DHT22;22650;49.350;20.898;2023-04-16T14:31:30;19.80;61.00
36654;DHT22;22650;49.350;20.898;2023-04-16T14:34:04;19.70;61.30
36654;DHT22;22650;49.350;20.898;2023-04-16T14:36:38;19.60;62.10
36654;DHT22;22650;49.350;20.898;2023-04-16T14:39:12;19.50;62.00
36654;DHT22;22650;49.350;20.898;2023-04-16T14:41:45;19.40;61.80
36654;DHT22;22650;49.350;20.898;2023-04-16T14:44:19;19.20;62.90
36654;DHT22;22650;49.350;20.898;2023-04-16T14:46:54;19.00;63.60
36654;DHT22;22650;49.350;20.898;2023-04-16T14:49:27;18.90;63.30
36654;DHT22;22650;49.350;20.898;2023-04-16T14:52:01;18.70;64.00
36654;DHT22;22650;49.350;20.898;2023-04-16T14:54:36;18.50;64.20
36654;DHT22;22650;49.350;20.898;2023-04-16T14:57:10;18.40;64.90
36654;DHT22;22650;49.350;20.898;2023-04-16T14:59:43;18.30;65.20
36654;DHT22;22650;49.350;20.898;2023-04-16T15:02:18;18.10;65.40
36654;DHT22;22650;49.350;20.898;2023-04-16T15:04:53;17.90;65.70
36654;DHT22;22650;49.350;20.898;2023-04-16T15:07:26;17.80;67.40
36654;DHT22;22650;49.350;20.898;2023-04-16T15:10:00;17.70;67.50
36654;DHT22;22650;49.350;20.898;2023-04-16T15:12:34;17.60;67.80
36654;DHT22;22650;49.350;20.898;2023-04-16T15:15:08;17.50;68.30
36654;DHT22;22650;49.350;20.898;2023-04-16T15:17:43;17.40;69.60
36654;DHT22;22650;49.350;20.898;2023-04-16T15:20:17;17.30;70.00
36654;DHT22;22650;49.350;20.898;2023-04-16T15:22:50;17.20;70.60
36654;DHT22;22650;49.350;20.898;2023-04-16T15:25:24;17.20;71.40
36654;DHT22;22650;49.350;20.898;2023-04-16T15:27:57;17.10;74.80
36654;DHT22;22650;49.350;20.898;2023-04-16T15:30:33;17.00;78.30
36654;DHT22;22650;49.350;20.898;2023-04-16T15:33:08;17.00;79.50
36654;DHT22;22650;49.350;20.898;2023-04-16T15:35:42;17.00;83.00
36654;DHT22;22650;49.350;20.898;2023-04-16T15:38:16;17.00;91.10
36654;DHT22;22650;49.350;20.898;2023-04-16T15:40:49;16.90;91.60
36654;DHT22;22650;49.350;20.898;2023-04-16T15:43:25;16.90;88.60
36654;DHT22;22650;49.350;20.898;2023-04-16T15:45:59;16.90;89.50
36654;DHT22;22650;49.350;20.898;2023-04-16T15:48:35;16.80;89.70
36654;DHT22;22650;49.350;20.898;2023-04-16T15:51:08;16.80;90.10
36654;DHT22;22650;49.350;20.898;2023-04-16T15:53:42;16.80;90.40
36654;DHT22;22650;49.350;20.898;2023-04-16T15:56:16;16.70;87.30
36654;DHT22;22650;49.350;20.898;2023-04-16T15:58:50;16.60;87.50
36654;DHT22;22650;49.350;20.898;2023-04-16T16:01:24;16.60;88.30
36654;DHT22;22650;49.350;20.898;2023-04-16T16:03:59;16.50;89.80
36654;DHT22;22650;49.350;20.898;2023-04-16T16:06:32;16.50;89.60
36654;DHT22;22650;49.350;20.898;2023-04-16T16:09:06;16.40;89.80